Time;durP1;ratioP1;P1;durP2;ratioP2;P2;SDS_P1;SDS_P2;PMS_P1;PMS_P2;Temp;Humidity;BMP_temperature;BMP_pressure;BME280_temperature;BME280_humidity;BME280_pressure;Samples;Min_cycle;Max_cycle;Signal;HPM_P1;HPM_P2
2021/08/01 00:01:33;;;;;;;4.93;2.27;;;;;;;;;;5077953;28;20459;-72
2021/08/01 00:04:02;;;;;;;6.63;2.63;;;;;;;;;;5077115;28;20476;-74
2021/08/01 00:06:30;;;;;;;6.33;2.30;;;;;;;;;;5076984;28;20470;-73
2021/08/01 00:08:58;;;;;;;6.90;1.90;;;;;;;;;;5077808;28;20746;-72
2021/08/01 00:11:25;;;;;;;2.67;1.90;;;;;;;;;;5077945;28;20522;-74
2021/08/01 00:13:53;;;;;;;4.03;2.70;;;;;;;;;;5077478;28;20547;-73
2021/08/01 00:16:21;;;;;;;5.23;2.43;;;;;;;;;;5077910;28;20563;-73
2021/08/01 00:18:48;;;;;;;9.63;3.67;;;;;;;;;;5077697;28;20527;-73
2021/08/01 00:21:18;;;;;;;5.63;2.70;;;;;;;;;;5077619;28;20543;-73
2021/08/01 00:23:45;;;;;;;3.13;2.30;;;;;;;;;;5077429;28;20525;-73
2021/08/01 00:26:13;;;;;;;5.13;3.20;;;;;;;;;;5076924;28;20464;-71
2021/08/01 00:28:41;;;;;;;2.60;2.30;;;;;;;;;;5077658;28;20464;-72
2021/08/01 00:31:08;;;;;;;3.07;2.30;;;;;;;;;;5077281;28;21067;-72
2021/08/01 00:33:36;;;;;;;4.00;2.70;;;;;;;;;;5077255;28;20530;-72
2021/08/01 00:36:04;;;;;;;4.07;2.73;;;;;;;;;;5077379;28;20472;-72
2021/08/01 00:38:33;;;;;;;3.90;2.80;;;;;;;;;;5077337;28;20485;-73
2021/08/01 00:41:02;;;;;;;3.83;2.50;;;;;;;;;;5076901;28;20500;-72
2021/08/01 00:43:30;;;;;;;5.17;2.73;;;;;;;;;;5077361;28;20499;-73
2021/08/01 00:45:58;;;;;;;3.90;2.30;;;;;;;;;;5077455;28;20475;-72
2021/08/01 00:48:27;;;;;;;7.07;2.83;;;;;;;;;;5077151;28;20453;-72
2021/08/01 00:50:55;;;;;;;4.67;3.00;;;;;;;;;;5076817;28;20465;-72
2021/08/01 00:53:23;;;;;;;4.57;2.80;;;;;;;;;;5077364;28;20523;-72
2021/08/01 00:55:52;;;;;;;3.57;3.10;;;;;;;;;;5076989;28;20859;-73
2021/08/01 00:58:20;;;;;;;5.03;3.00;;;;;;;;;;5077225;28;20466;-72
2021/08/01 01:01:05;;;;;;;3.37;2.90;;;;;;;;;;5077046;28;20529;-72
2021/08/01 01:03:38;;;;;;;8.47;2.90;;;;;;;;;;5077386;28;21059;-73
2021/08/01 01:06:08;;;;;;;3.67;2.60;;;;;;;;;;5076976;28;21077;-73
2021/08/01 01:08:40;;;;;;;4.67;2.97;;;;;;;;;;5076246;28;20818;-72
2021/08/01 01:11:12;;;;;;;3.63;2.83;;;;;;;;;;5076957;28;20448;-72
2021/08/01 01:13:45;;;;;;;7.30;3.50;;;;;;;;;;5076863;28;20577;-73
2021/08/01 01:16:13;;;;;;;5.57;2.87;;;;;;;;;;5076623;28;20463;-73
2021/08/01 01:18:43;;;;;;;7.33;3.70;;;;;;;;;;5081040;28;20472;-73
2021/08/01 01:21:20;;;;;;;4.60;3.50;;;;;;;;;;5081105;28;20979;-72
2021/08/01 01:23:49;;;;;;;4.40;2.77;;;;;;;;;;5080841;28;20456;-73
2021/08/01 01:26:21;;;;;;;4.13;2.83;;;;;;;;;;5080848;28;20943;-74
2021/08/01 01:28:52;;;;;;;3.97;2.60;;;;;;;;;;5080738;28;20460;-72
2021/08/01 01:31:31;;;;;;;5.80;2.43;;;;;;;;;;5093314;28;20467;-73
2021/08/01 01:34:04;;;;;;;3.60;2.60;;;;;;;;;;5101580;28;20463;-73
2021/08/01 01:36:34;;;;;;;4.07;3.20;;;;;;;;;;5100777;28;20745;-73
2021/08/01 01:39:03;;;;;;;5.20;2.60;;;;;;;;;;5100764;28;20570;-73
2021/08/01 01:41:31;;;;;;;4.60;2.87;;;;;;;;;;5100087;28;20554;-73
2021/08/01 01:43:59;;;;;;;2.80;2.20;;;;;;;;;;5100737;28;20458;-72
2021/08/01 01:46:27;;;;;;;5.80;2.53;;;;;;;;;;5100839;28;20465;-73
2021/08/01 01:48:55;;;;;;;3.60;2.53;;;;;;;;;;5100611;28;20821;-73
2021/08/01 01:51:23;;;;;;;3.70;2.53;;;;;;;;;;5100626;28;20459;-73
2021/08/01 01:53:53;;;;;;;4.47;3.10;;;;;;;;;;5100104;28;20844;-73
2021/08/01 01:56:21;;;;;;;4.50;2.67;;;;;;;;;;5100452;28;20474;-73
2021/08/01 01:58:49;;;;;;;3.93;2.10;;;;;;;;;;5100493;28;20450;-72
2021/08/01 02:01:18;;;;;;;3.83;2.90;;;;;;;;;;5100475;28;20470;-72
2021/08/01 02:03:46;;;;;;;4.37;2.20;;;;;;;;;;5099219;28;20550;-73
2021/08/01 02:06:15;;;;;;;2.27;1.63;;;;;;;;;;5099918;28;20492;-73
2021/08/01 02:08:49;;;;;;;3.70;2.30;;;;;;;;;;5100316;28;20949;-72
2021/08/01 02:11:19;;;;;;;4.30;2.40;;;;;;;;;;5100275;28;20474;-72
2021/08/01 02:14:02;;;;;;;7.37;2.50;;;;;;;;;;5100098;28;20483;-73
2021/08/01 02:16:34;;;;;;;6.03;2.70;;;;;;;;;;5100056;28;20460;-73
2021/08/01 02:19:03;;;;;;;3.37;2.67;;;;;;;;;;5100171;28;20455;-73
2021/08/01 02:21:30;;;;;;;4.97;2.47;;;;;;;;;;5100256;28;20549;-73
2021/08/01 02:24:00;;;;;;;4.50;2.07;;;;;;;;;;5100102;28;20466;-73
2021/08/01 02:26:30;;;;;;;5.40;2.47;;;;;;;;;;5099940;28;20503;-73
2021/08/01 02:28:58;;;;;;;4.23;2.50;;;;;;;;;;5099155;28;20487;-71
2021/08/01 02:31:26;;;;;;;2.93;2.60;;;;;;;;;;5099884;28;20559;-72
2021/08/01 02:33:54;;;;;;;4.70;2.80;;;;;;;;;;5099979;28;20538;-73
2021/08/01 02:36:22;;;;;;;3.60;2.10;;;;;;;;;;5099803;28;20459;-73
2021/08/01 02:38:52;;;;;;;3.70;2.93;;;;;;;;;;5099230;28;20459;-73
2021/08/01 02:41:20;;;;;;;5.67;3.10;;;;;;;;;;5099752;28;20474;-73
2021/08/01 02:43:50;;;;;;;5.60;2.83;;;;;;;;;;5100192;28;20462;-73
2021/08/01 02:46:20;;;;;;;5.93;3.27;;;;;;;;;;5099657;28;20467;-73
2021/08/01 02:48:49;;;;;;;7.83;2.87;;;;;;;;;;5099518;28;20882;-73
2021/08/01 02:51:17;;;;;;;4.87;3.67;;;;;;;;;;5099443;28;20914;-72
2021/08/01 02:53:48;;;;;;;4.23;3.17;;;;;;;;;;5099532;28;20466;-73
2021/08/01 02:56:20;;;;;;;7.10;3.90;;;;;;;;;;5099536;28;20843;-72
2021/08/01 02:58:48;;;;;;;4.80;3.97;;;;;;;;;;5099678;28;20451;-73
2021/08/01 03:01:18;;;;;;;4.60;4.13;;;;;;;;;;5098788;28;20529;-72
2021/08/01 03:03:46;;;;;;;9.20;3.93;;;;;;;;;;5099304;28;20914;-74
2021/08/01 03:06:15;;;;;;;6.20;4.60;;;;;;;;;;5099493;28;20503;-73
2021/08/01 03:08:43;;;;;;;9.33;4.40;;;;;;;;;;5099249;28;20523;-73
2021/08/01 03:11:12;;;;;;;6.50;4.83;;;;;;;;;;5099227;28;20836;-73
2021/08/01 03:13:40;;;;;;;6.50;4.27;;;;;;;;;;5099078;28;20738;-71
2021/08/01 03:16:08;;;;;;;7.80;5.30;;;;;;;;;;5099462;28;20553;-73
2021/08/01 03:18:37;;;;;;;7.00;5.47;;;;;;;;;;5091058;28;20455;-72
2021/08/01 03:21:05;;;;;;;7.93;4.97;;;;;;;;;;5062549;28;20571;-73
2021/08/01 03:23:33;;;;;;;8.80;4.63;;;;;;;;;;5058547;28;20454;-73
2021/08/01 03:26:00;;;;;;;5.60;4.20;;;;;;;;;;5058430;28;20500;-74
2021/08/01 03:28:28;;;;;;;9.10;5.70;;;;;;;;;;5058587;28;20746;-72
2021/08/01 03:30:56;;;;;;;8.10;4.97;;;;;;;;;;5058827;28;20465;-73
2021/08/01 03:33:24;;;;;;;9.33;6.10;;;;;;;;;;5058127;28;20449;-73
2021/08/01 03:35:53;;;;;;;5.73;4.13;;;;;;;;;;5057986;28;20469;-73
2021/08/01 03:38:20;;;;;;;10.10;4.33;;;;;;;;;;5058277;28;20453;-73
2021/08/01 03:40:48;;;;;;;7.40;4.93;;;;;;;;;;5057308;28;20524;-73
2021/08/01 03:43:16;;;;;;;7.00;4.97;;;;;;;;;;5058145;28;20514;-72
2021/08/01 03:45:44;;;;;;;7.30;5.67;;;;;;;;;;5058017;28;20544;-73
2021/08/01 03:48:11;;;;;;;6.07;4.57;;;;;;;;;;5057869;28;20488;-73
2021/08/01 03:50:39;;;;;;;5.80;4.33;;;;;;;;;;5057911;28;21043;-73
2021/08/01 03:53:08;;;;;;;5.13;4.40;;;;;;;;;;5057858;28;20445;-72
2021/08/01 03:55:36;;;;;;;4.40;3.60;;;;;;;;;;5058222;28;20465;-72
2021/08/01 03:58:03;;;;;;;7.23;5.13;;;;;;;;;;5057636;28;20538;-73
2021/08/01 04:00:31;;;;;;;7.60;5.30;;;;;;;;;;5057799;28;20488;-72
2021/08/01 04:02:59;;;;;;;9.07;4.50;;;;;;;;;;5057091;28;20505;-73
2021/08/01 04:05:26;;;;;;;7.53;5.57;;;;;;;;;;5056843;28;20453;-72
2021/08/01 04:07:54;;;;;;;8.63;4.63;;;;;;;;;;5057903;28;20540;-73
2021/08/01 04:10:23;;;;;;;8.37;5.07;;;;;;;;;;5057472;28;20568;-73
2021/08/01 04:12:51;;;;;;;9.40;4.67;;;;;;;;;;5057748;28;20551;-73
2021/08/01 04:15:19;;;;;;;8.30;5.27;;;;;;;;;;5057442;28;20492;-73
2021/08/01 04:17:46;;;;;;;6.83;4.43;;;;;;;;;;5057660;28;20515;-73
2021/08/01 04:20:15;;;;;;;6.50;4.20;;;;;;;;;;5057424;28;20724;-73
2021/08/01 04:22:43;;;;;;;6.73;4.50;;;;;;;;;;5057811;28;20737;-73
2021/08/01 04:25:11;;;;;;;6.73;5.10;;;;;;;;;;5057560;28;20450;-73
2021/08/01 04:27:46;;;;;;;9.00;4.77;;;;;;;;;;5057243;28;20468;-73
2021/08/01 04:30:14;;;;;;;9.83;4.67;;;;;;;;;;5057153;28;20456;-74
2021/08/01 04:32:42;;;;;;;9.33;6.20;;;;;;;;;;5056922;28;20467;-73
2021/08/01 04:35:10;;;;;;;5.30;4.40;;;;;;;;;;5057249;28;20505;-73
2021/08/01 04:37:38;;;;;;;6.67;4.50;;;;;;;;;;5057036;28;20728;-73
2021/08/01 04:40:07;;;;;;;8.23;4.80;;;;;;;;;;5056971;28;20554;-72
2021/08/01 04:42:34;;;;;;;6.47;4.87;;;;;;;;;;5056725;28;20461;-73
2021/08/01 04:45:03;;;;;;;6.33;4.10;;;;;;;;;;5056828;28;20453;-73
2021/08/01 04:47:31;;;;;;;7.03;4.40;;;;;;;;;;5057371;28;20471;-74
2021/08/01 04:49:59;;;;;;;9.20;4.80;;;;;;;;;;5056915;28;20508;-71
2021/08/01 04:52:27;;;;;;;5.87;3.70;;;;;;;;;;5056859;28;20465;-71
2021/08/01 04:54:54;;;;;;;6.33;3.77;;;;;;;;;;5056647;28;20464;-73
2021/08/01 04:57:22;;;;;;;5.63;3.20;;;;;;;;;;5057302;28;20480;-73
2021/08/01 04:59:50;;;;;;;5.37;4.30;;;;;;;;;;5063779;28;20539;-73
2021/08/01 05:02:19;;;;;;;7.20;4.93;;;;;;;;;;5076820;28;20533;-71
2021/08/01 05:04:47;;;;;;;6.13;4.50;;;;;;;;;;5076732;28;20535;-73
2021/08/01 05:07:14;;;;;;;8.93;5.47;;;;;;;;;;5077244;28;20465;-73
2021/08/01 05:09:42;;;;;;;5.50;4.77;;;;;;;;;;5077206;28;20467;-72
2021/08/01 05:12:10;;;;;;;10.70;4.60;;;;;;;;;;5076739;28;20452;-73
2021/08/01 05:14:38;;;;;;;7.00;5.10;;;;;;;;;;5076901;28;20521;-73
2021/08/01 05:17:05;;;;;;;8.57;5.03;;;;;;;;;;5076877;28;20876;-73
2021/08/01 05:19:39;;;;;;;12.10;5.40;;;;;;;;;;5076812;28;20551;-73
2021/08/01 05:22:07;;;;;;;9.43;6.47;;;;;;;;;;5076944;28;20496;-73
2021/08/01 05:24:37;;;;;;;10.60;5.40;;;;;;;;;;5076878;28;20457;-72
2021/08/01 05:27:05;;;;;;;8.13;5.50;;;;;;;;;;5077103;28;20547;-74
2021/08/01 05:29:32;;;;;;;8.33;5.17;;;;;;;;;;5076811;28;20938;-72
2021/08/01 05:32:00;;;;;;;6.67;4.80;;;;;;;;;;5077063;28;20472;-74
2021/08/01 05:34:28;;;;;;;8.03;4.90;;;;;;;;;;5076454;28;20521;-73
2021/08/01 05:36:57;;;;;;;8.13;5.37;;;;;;;;;;5076866;28;20559;-73
2021/08/01 05:39:25;;;;;;;7.63;5.00;;;;;;;;;;5076598;28;20452;-73
2021/08/01 05:41:52;;;;;;;7.30;5.70;;;;;;;;;;5076847;28;20488;-73
2021/08/01 05:44:20;;;;;;;7.80;5.00;;;;;;;;;;5076004;28;20555;-73
2021/08/01 05:46:48;;;;;;;8.70;5.60;;;;;;;;;;5076639;28;20468;-73
2021/08/01 05:49:19;;;;;;;12.93;7.23;;;;;;;;;;5059441;28;20522;-73
2021/08/01 05:51:53;;;;;;;10.33;6.33;;;;;;;;;;5056479;28;20550;-72
2021/08/01 05:54:22;;;;;;;9.10;6.00;;;;;;;;;;5056406;28;20868;-73
2021/08/01 05:56:50;;;;;;;9.00;6.30;;;;;;;;;;5056575;28;20469;-73
2021/08/01 05:59:17;;;;;;;11.80;7.00;;;;;;;;;;5056366;28;20445;-73
2021/08/01 06:01:45;;;;;;;9.33;6.23;;;;;;;;;;5056644;28;20489;-74
2021/08/01 06:04:13;;;;;;;8.63;6.80;;;;;;;;;;5058134;28;20468;-73
2021/08/01 06:06:40;;;;;;;9.07;8.10;;;;;;;;;;5060467;28;20464;-73
2021/08/01 06:09:08;;;;;;;9.60;5.40;;;;;;;;;;5059874;28;20445;-72
2021/08/01 06:11:37;;;;;;;9.63;7.57;;;;;;;;;;5059532;28;20469;-72
2021/08/01 06:14:05;;;;;;;11.93;7.40;;;;;;;;;;5059550;28;20523;-72
2021/08/01 06:16:34;;;;;;;8.20;6.20;;;;;;;;;;5059856;28;20475;-73
2021/08/01 06:19:02;;;;;;;8.80;5.67;;;;;;;;;;5059479;28;20449;-72
2021/08/01 06:21:29;;;;;;;9.73;6.07;;;;;;;;;;5069413;28;20503;-71
2021/08/01 06:23:57;;;;;;;8.47;6.23;;;;;;;;;;5080737;28;20445;-73
2021/08/01 06:26:25;;;;;;;9.60;7.30;;;;;;;;;;5098175;28;20468;-71
2021/08/01 06:29:18;;;;;;;;;;;;;;;;;;;;;
2021/08/01 06:31:55;;;;;;;11.17;6.50;;;;;;;;;;5091408;28;20473;-72
2021/08/01 06:34:31;;;;;;;18.70;7.37;;;;;;;;;;5101706;28;20448;-72
2021/08/01 06:37:11;;;;;;;9.60;6.60;;;;;;;;;;5099612;28;20712;-71
2021/08/01 06:39:49;;;;;;;8.30;5.80;;;;;;;;;;5099973;28;20542;-71
2021/08/01 06:42:27;;;;;;;7.07;5.90;;;;;;;;;;5099663;28;20533;-71
2021/08/01 06:45:21;;;;;;;8.10;6.07;;;;;;;;;;5099623;28;20767;-72
2021/08/01 06:48:09;;;;;;;10.57;4.90;;;;;;;;;;5092014;28;20707;-71
2021/08/01 06:53:20;;;;;;;8.00;5.50;;;;;;;;;;5095967;28;20456;-72
2021/08/01 06:55:48;;;;;;;7.93;5.03;;;;;;;;;;5102203;28;20917;-73
2021/08/01 06:58:18;;;;;;;10.03;6.40;;;;;;;;;;5082378;28;20459;-71
2021/08/01 07:00:47;;;;;;;7.80;6.00;;;;;;;;;;5078823;28;20481;-73
2021/08/01 07:03:16;;;;;;;7.83;5.73;;;;;;;;;;5078854;28;20464;-73
2021/08/01 07:05:44;;;;;;;7.13;5.97;;;;;;;;;;5067576;28;20571;-73
2021/08/01 07:08:11;;;;;;;10.30;6.00;;;;;;;;;;5078452;28;20456;-73
2021/08/01 07:10:39;;;;;;;9.50;7.23;;;;;;;;;;5079555;28;20463;-74
2021/08/01 07:13:07;;;;;;;7.37;5.63;;;;;;;;;;5078285;28;20874;-73
2021/08/01 07:15:37;;;;;;;10.30;7.10;;;;;;;;;;5078163;28;20462;-73
2021/08/01 07:18:05;;;;;;;6.47;4.77;;;;;;;;;;5077900;28;20517;-73
2021/08/01 07:20:34;;;;;;;9.53;6.00;;;;;;;;;;5078486;28;20461;-72
2021/08/01 07:23:05;;;;;;;7.20;5.73;;;;;;;;;;5077698;28;20514;-72
2021/08/01 07:25:33;;;;;;;7.10;5.80;;;;;;;;;;5077176;28;20460;-72
2021/08/01 07:28:01;;;;;;;9.07;6.83;;;;;;;;;;5078093;28;20452;-72
2021/08/01 07:30:29;;;;;;;7.93;5.77;;;;;;;;;;5078053;28;20718;-71
2021/08/01 07:32:56;;;;;;;7.80;4.67;;;;;;;;;;5077723;28;20464;-71
2021/08/01 07:35:24;;;;;;;5.73;5.00;;;;;;;;;;5077696;28;20465;-71
2021/08/01 07:37:53;;;;;;;10.70;4.70;;;;;;;;;;5077602;28;20540;-73
2021/08/01 07:40:21;;;;;;;7.80;4.83;;;;;;;;;;5077463;28;20559;-73
2021/08/01 07:42:48;;;;;;;4.80;3.90;;;;;;;;;;5077381;28;20484;-73
2021/08/01 07:45:24;;;;;;;9.73;5.33;;;;;;;;;;5078236;28;20460;-73
2021/08/01 07:47:51;;;;;;;6.57;4.50;;;;;;;;;;5078419;28;20451;-73
2021/08/01 07:50:19;;;;;;;7.10;5.20;;;;;;;;;;5077753;28;20959;-73
2021/08/01 07:52:47;;;;;;;4.73;3.97;;;;;;;;;;5077200;28;20448;-73
2021/08/01 07:55:16;;;;;;;6.67;3.73;;;;;;;;;;5078212;28;20468;-73
2021/08/01 07:57:44;;;;;;;6.20;4.70;;;;;;;;;;5076642;28;20490;-72
2021/08/01 08:00:13;;;;;;;5.73;3.40;;;;;;;;;;5094391;28;20475;-73
2021/08/01 08:02:41;;;;;;;5.83;4.53;;;;;;;;;;5097984;28;20488;-72
2021/08/01 08:05:12;;;;;;;8.70;4.50;;;;;;;;;;5097930;28;20517;-73
2021/08/01 08:07:42;;;;;;;9.13;4.50;;;;;;;;;;5092213;28;20897;-73
2021/08/01 08:10:11;;;;;;;5.10;4.10;;;;;;;;;;5076083;28;20453;-72
2021/08/01 08:12:40;;;;;;;6.20;4.00;;;;;;;;;;5077377;28;20519;-73
2021/08/01 08:15:09;;;;;;;6.63;3.80;;;;;;;;;;5076690;28;20464;-72
2021/08/01 08:17:37;;;;;;;5.43;4.03;;;;;;;;;;5076761;28;20543;-72
2021/08/01 08:20:06;;;;;;;4.50;3.57;;;;;;;;;;5076446;28;20547;-73
2021/08/01 08:22:37;;;;;;;3.90;3.50;;;;;;;;;;5077290;28;20554;-73
2021/08/01 08:25:06;;;;;;;7.23;3.57;;;;;;;;;;5077165;28;20460;-73
2021/08/01 08:27:34;;;;;;;6.67;3.90;;;;;;;;;;5087090;28;20451;-73
2021/08/01 08:30:03;;;;;;;6.77;4.37;;;;;;;;;;5097284;28;20487;-73
2021/08/01 08:32:34;;;;;;;5.87;3.63;;;;;;;;;;5097263;28;20460;-74
2021/08/01 08:35:02;;;;;;;4.67;3.87;;;;;;;;;;5097863;28;20736;-73
2021/08/01 08:37:30;;;;;;;6.07;3.50;;;;;;;;;;5097199;28;20456;-73
2021/08/01 08:39:58;;;;;;;5.60;3.80;;;;;;;;;;5097158;28;20544;-73
2021/08/01 08:42:27;;;;;;;7.93;3.77;;;;;;;;;;5096897;28;20498;-73
2021/08/01 08:44:55;;;;;;;4.43;3.40;;;;;;;;;;5096444;28;20463;-74
2021/08/01 08:47:26;;;;;;;6.60;3.70;;;;;;;;;;5096713;28;20521;-73
2021/08/01 08:50:04;;;;;;;6.10;3.93;;;;;;;;;;5076097;28;20856;-73
2021/08/01 08:52:34;;;;;;;3.30;2.93;;;;;;;;;;5076112;28;20513;-74
2021/08/01 08:55:02;;;;;;;4.10;3.10;;;;;;;;;;5076762;28;20461;-72
2021/08/01 08:57:32;;;;;;;4.10;3.53;;;;;;;;;;5075983;28;20543;-73
2021/08/01 09:00:02;;;;;;;3.80;2.63;;;;;;;;;;5076508;28;20476;-73
2021/08/01 09:02:31;;;;;;;4.30;2.80;;;;;;;;;;5075745;28;20815;-72
2021/08/01 09:04:59;;;;;;;5.03;3.20;;;;;;;;;;5076183;28;20486;-73
2021/08/01 09:07:27;;;;;;;4.70;2.87;;;;;;;;;;5075288;28;20469;-73
2021/08/01 09:09:55;;;;;;;3.90;3.50;;;;;;;;;;5076261;28;20946;-73
2021/08/01 09:12:24;;;;;;;4.30;3.20;;;;;;;;;;5076202;28;20547;-73
2021/08/01 09:15:07;;;;;;;7.37;4.77;;;;;;;;;;5075963;28;20460;-72
2021/08/01 09:17:40;;;;;;;3.20;2.27;;;;;;;;;;5076693;28;20479;-73
2021/08/01 09:20:14;;;;;;;6.20;2.80;;;;;;;;;;5075237;28;20467;-73
2021/08/01 09:22:42;;;;;;;7.63;3.23;;;;;;;;;;5075435;28;20530;-73
2021/08/01 09:25:18;;;;;;;3.97;2.90;;;;;;;;;;5076150;28;20563;-73
2021/08/01 09:27:46;;;;;;;3.83;2.33;;;;;;;;;;5075644;28;20868;-73
2021/08/01 09:30:14;;;;;;;3.60;2.60;;;;;;;;;;5075836;28;20535;-74
2021/08/01 09:32:50;;;;;;;3.40;2.30;;;;;;;;;;5075178;28;20871;-73
2021/08/01 09:35:18;;;;;;;5.33;2.40;;;;;;;;;;5075787;28;20464;-73
2021/08/01 09:37:55;;;;;;;4.10;2.47;;;;;;;;;;5075687;28;20529;-73
2021/08/01 09:40:23;;;;;;;3.77;2.90;;;;;;;;;;5079430;28;21453;-74
2021/08/01 09:42:50;;;;;;;2.70;2.30;;;;;;;;;;5079233;28;20487;-74
2021/08/01 09:45:19;;;;;;;3.83;2.27;;;;;;;;;;5079315;28;20461;-74
2021/08/01 09:47:47;;;;;;;5.40;2.73;;;;;;;;;;5079867;28;20454;-74
2021/08/01 09:50:19;;;;;;;4.37;2.40;;;;;;;;;;5080358;28;20452;-73
2021/08/01 09:52:46;;;;;;;3.63;2.53;;;;;;;;;;5079671;28;20463;-73
2021/08/01 09:55:18;;;;;;;3.63;2.27;;;;;;;;;;5079476;28;20499;-73
2021/08/01 09:57:53;;;;;;;3.00;2.13;;;;;;;;;;5078730;28;20489;-74
2021/08/01 10:00:21;;;;;;;3.57;2.50;;;;;;;;;;5079671;28;20924;-73
2021/08/01 10:02:49;;;;;;;3.30;1.97;;;;;;;;;;5078837;28;20492;-73
2021/08/01 10:05:20;;;;;;;2.40;1.70;;;;;;;;;;5078825;28;20554;-73
2021/08/01 10:07:49;;;;;;;2.27;1.87;;;;;;;;;;5078237;28;20539;-73
2021/08/01 10:10:17;;;;;;;3.67;2.27;;;;;;;;;;5078083;28;20782;-73
2021/08/01 10:12:48;;;;;;;4.53;2.80;;;;;;;;;;5078792;28;20460;-73
2021/08/01 10:15:22;;;;;;;3.03;2.07;;;;;;;;;;5079029;28;20452;-74
2021/08/01 10:17:57;;;;;;;2.90;2.03;;;;;;;;;;5078202;28;20452;-72
2021/08/01 10:20:28;;;;;;;2.17;1.63;;;;;;;;;;5067704;28;20502;-72
2021/08/01 10:22:56;;;;;;;2.10;1.57;;;;;;;;;;5077818;28;20508;-71
2021/08/01 10:25:26;;;;;;;4.50;1.80;;;;;;;;;;5077971;28;20471;-73
2021/08/01 10:27:55;;;;;;;4.80;1.80;;;;;;;;;;5078261;28;20510;-72
2021/08/01 10:30:26;;;;;;;3.07;1.90;;;;;;;;;;5078747;28;20534;-72
2021/08/01 10:32:58;;;;;;;2.27;1.60;;;;;;;;;;5078144;28;20526;-72
2021/08/01 10:35:28;;;;;;;2.20;1.70;;;;;;;;;;5078351;28;20466;-72
2021/08/01 10:37:57;;;;;;;3.07;1.70;;;;;;;;;;5077704;28;20722;-72
2021/08/01 10:40:26;;;;;;;2.30;2.00;;;;;;;;;;5078897;28;20465;-71
2021/08/01 10:42:55;;;;;;;3.97;2.07;;;;;;;;;;5078257;28;20488;-72
2021/08/01 10:45:27;;;;;;;6.63;1.67;;;;;;;;;;5079103;28;20475;-73
2021/08/01 10:47:59;;;;;;;2.30;1.60;;;;;;;;;;5077409;28;20761;-73
2021/08/01 10:50:29;;;;;;;3.33;1.80;;;;;;;;;;5077875;28;20488;-73
2021/08/01 10:53:11;;;;;;;2.97;1.90;;;;;;;;;;5076979;28;20552;-72
2021/08/01 10:55:39;;;;;;;2.60;2.17;;;;;;;;;;5061490;28;20464;-73
2021/08/01 10:58:12;;;;;;;3.53;2.30;;;;;;;;;;5077880;28;20449;-73
2021/08/01 11:00:58;;;;;;;3.43;2.20;;;;;;;;;;5077518;28;20445;-73
2021/08/01 11:03:26;;;;;;;3.37;2.37;;;;;;;;;;5057818;28;20481;-72
2021/08/01 11:05:56;;;;;;;3.63;2.33;;;;;;;;;;5070105;28;20455;-72
2021/08/01 11:08:23;;;;;;;2.40;2.07;;;;;;;;;;5077138;28;20468;-72
2021/08/01 11:11:08;;;;;;;3.10;2.30;;;;;;;;;;5076313;28;20476;-72
2021/08/01 11:13:40;;;;;;;2.30;1.87;;;;;;;;;;5077313;28;20484;-72
2021/08/01 11:16:09;;;;;;;2.43;1.63;;;;;;;;;;5076608;28;20543;-71
2021/08/01 11:18:38;;;;;;;3.97;2.43;;;;;;;;;;5065795;28;20775;-72
2021/08/01 11:21:09;;;;;;;3.87;1.93;;;;;;;;;;5077396;28;20856;-72
2021/08/01 11:23:55;;;;;;;2.73;1.70;;;;;;;;;;5077100;28;20484;-71
2021/08/01 11:26:27;;;;;;;3.30;2.33;;;;;;;;;;5077783;28;20457;-71
2021/08/01 11:29:06;;;;;;;2.27;1.83;;;;;;;;;;5076555;28;20460;-72
2021/08/01 11:31:34;;;;;;;4.20;2.00;;;;;;;;;;5077039;28;20775;-72
2021/08/01 11:34:16;;;;;;;3.40;1.83;;;;;;;;;;5077571;28;20468;-72
2021/08/01 11:36:45;;;;;;;3.00;2.00;;;;;;;;;;5076373;28;20862;-72
2021/08/01 11:39:13;;;;;;;4.07;2.60;;;;;;;;;;5076180;28;20466;-72
2021/08/01 11:41:43;;;;;;;3.60;2.33;;;;;;;;;;5076640;28;20816;-70
2021/08/01 11:44:22;;;;;;;2.43;2.03;;;;;;;;;;5075754;28;20532;-73
2021/08/01 11:47:00;;;;;;;3.43;2.70;;;;;;;;;;5072806;28;20582;-72
2021/08/01 11:49:31;;;;;;;2.90;2.00;;;;;;;;;;5076675;28;20460;-72
2021/08/01 11:52:00;;;;;;;2.20;1.90;;;;;;;;;;5071826;28;20756;-72
2021/08/01 11:54:29;;;;;;;2.87;2.10;;;;;;;;;;5075831;28;20559;-71
2021/08/01 11:57:01;;;;;;;2.40;1.93;;;;;;;;;;5076610;28;20448;-72
2021/08/01 11:59:33;;;;;;;2.90;1.97;;;;;;;;;;5075866;28;20826;-72
2021/08/01 12:02:03;;;;;;;3.23;1.83;;;;;;;;;;5074782;28;20482;-70
2021/08/01 12:04:31;;;;;;;3.23;2.60;;;;;;;;;;5076584;28;20504;-71
2021/08/01 12:07:00;;;;;;;6.50;2.50;;;;;;;;;;5075950;28;20943;-72
2021/08/01 12:09:29;;;;;;;3.40;2.87;;;;;;;;;;5076391;28;20468;-72
2021/08/01 12:11:57;;;;;;;3.53;2.23;;;;;;;;;;5076600;28;20548;-71
2021/08/01 12:14:28;;;;;;;4.63;2.53;;;;;;;;;;5076462;28;20549;-72
2021/08/01 12:16:57;;;;;;;3.83;2.60;;;;;;;;;;5076091;28;20453;-72
2021/08/01 12:19:26;;;;;;;5.27;3.27;;;;;;;;;;5076725;28;20727;-71
2021/08/01 12:21:55;;;;;;;2.60;2.20;;;;;;;;;;5076076;28;20457;-73
2021/08/01 12:24:38;;;;;;;3.70;2.97;;;;;;;;;;5077422;28;20543;-71
2021/08/01 12:27:07;;;;;;;3.00;2.70;;;;;;;;;;5076156;28;20971;-72
2021/08/01 12:29:36;;;;;;;3.40;2.50;;;;;;;;;;5076338;28;20554;-72
2021/08/01 12:32:17;;;;;;;2.73;2.43;;;;;;;;;;5076678;28;20487;-72
2021/08/01 12:34:45;;;;;;;3.23;2.67;;;;;;;;;;5076245;28;20461;-72
2021/08/01 12:37:13;;;;;;;3.60;3.13;;;;;;;;;;5076389;28;20467;-72
2021/08/01 12:39:52;;;;;;;4.43;2.50;;;;;;;;;;5076623;28;20453;-72
2021/08/01 12:42:20;;;;;;;3.37;2.67;;;;;;;;;;5075960;28;20448;-73
2021/08/01 12:44:52;;;;;;;3.53;2.80;;;;;;;;;;5076477;28;20459;-73
2021/08/01 12:47:20;;;;;;;4.70;2.53;;;;;;;;;;5076709;28;20507;-72
2021/08/01 12:49:50;;;;;;;4.00;2.10;;;;;;;;;;5076982;28;20464;-73
2021/08/01 12:52:22;;;;;;;4.53;2.63;;;;;;;;;;5076338;28;20875;-73
2021/08/01 12:54:55;;;;;;;3.00;2.40;;;;;;;;;;5075909;28;20460;-73
2021/08/01 12:57:26;;;;;;;2.83;2.37;;;;;;;;;;5076256;28;20476;-73
2021/08/01 13:00:13;;;;;;;3.83;2.53;;;;;;;;;;5076519;28;20864;-73
2021/08/01 13:02:41;;;;;;;4.20;1.90;;;;;;;;;;5076755;28;20484;-73
2021/08/01 13:05:20;;;;;;;3.00;1.87;;;;;;;;;;5075729;28;20471;-73
2021/08/01 13:07:49;;;;;;;2.10;1.60;;;;;;;;;;5060815;28;20498;-71
2021/08/01 13:10:21;;;;;;;4.10;1.90;;;;;;;;;;5069232;28;20729;-72
2021/08/01 13:13:08;;;;;;;2.97;1.97;;;;;;;;;;5066356;28;20464;-74
2021/08/01 13:15:37;;;;;;;6.73;2.37;;;;;;;;;;5060105;28;20552;-72
2021/08/01 13:18:05;;;;;;;3.70;2.00;;;;;;;;;;5060051;28;20469;-73
2021/08/01 13:20:35;;;;;;;8.20;2.70;;;;;;;;;;5062012;28;20449;-73
2021/08/01 13:23:04;;;;;;;5.20;2.17;;;;;;;;;;5080653;28;20487;-73
2021/08/01 13:25:37;;;;;;;4.70;2.00;;;;;;;;;;5079076;28;20463;-73
2021/08/01 13:28:05;;;;;;;6.13;2.07;;;;;;;;;;5080001;28;20845;-73
2021/08/01 13:30:33;;;;;;;3.80;2.33;;;;;;;;;;5079610;28;20920;-73
2021/08/01 13:33:10;;;;;;;2.30;1.77;;;;;;;;;;5079870;28;20468;-73
2021/08/01 13:35:38;;;;;;;72.47;69.17;;;;;;;;;;5078270;28;20457;-74
2021/08/01 13:38:07;;;;;;;44.70;42.73;;;;;;;;;;5079521;28;20459;-73
2021/08/01 13:40:48;;;;;;;23.37;22.30;;;;;;;;;;5078014;28;20555;-71
2021/08/01 13:43:17;;;;;;;21.17;20.17;;;;;;;;;;5065336;28;20567;-73
2021/08/01 13:45:45;;;;;;;20.60;19.50;;;;;;;;;;5079100;28;20447;-73
2021/08/01 13:48:13;;;;;;;18.77;17.83;;;;;;;;;;5079175;28;20456;-74
2021/08/01 13:50:41;;;;;;;9.80;9.27;;;;;;;;;;5079323;28;20452;-74
2021/08/01 13:53:08;;;;;;;5.60;3.60;;;;;;;;;;5079884;28;20494;-73
2021/08/01 13:55:37;;;;;;;10.30;9.70;;;;;;;;;;5079294;28;20732;-73
2021/08/01 13:58:14;;;;;;;5.70;5.10;;;;;;;;;;5079711;28;20976;-73
2021/08/01 14:00:42;;;;;;;15.57;14.67;;;;;;;;;;5078625;28;20451;-73
2021/08/01 14:03:10;;;;;;;13.10;12.30;;;;;;;;;;5079393;28;20484;-73
2021/08/01 14:05:37;;;;;;;13.17;12.37;;;;;;;;;;5079461;28;20456;-73
2021/08/01 14:08:05;;;;;;;11.70;11.00;;;;;;;;;;5079417;28;20951;-72
2021/08/01 14:10:33;;;;;;;10.13;9.43;;;;;;;;;;5078254;28;20741;-73
2021/08/01 14:13:01;;;;;;;11.03;10.43;;;;;;;;;;5078910;28;20758;-73
2021/08/01 14:15:38;;;;;;;12.33;11.63;;;;;;;;;;5078702;28;20456;-74
2021/08/01 14:21:08;;;;;;;13.23;12.33;;;;;;;;;;5047245;28;20619;-74
2021/08/01 14:23:36;;;;;;;13.17;12.47;;;;;;;;;;5077796;28;20971;-73
2021/08/01 14:26:08;;;;;;;13.93;13.10;;;;;;;;;;5077973;28;20452;-73
2021/08/01 14:28:37;;;;;;;14.07;13.23;;;;;;;;;;5078195;28;20468;-74
2021/08/01 14:31:07;;;;;;;15.13;14.20;;;;;;;;;;5079403;28;20543;-73
2021/08/01 14:33:36;;;;;;;11.37;10.50;;;;;;;;;;5079362;28;20518;-74
2021/08/01 14:36:06;;;;;;;11.00;10.40;;;;;;;;;;5078174;28;20444;-72
2021/08/01 14:38:34;;;;;;;16.23;15.53;;;;;;;;;;5078355;28;20468;-74
2021/08/01 14:41:01;;;;;;;16.70;15.77;;;;;;;;;;5078204;28;20452;-78
2021/08/01 14:43:30;;;;;;;12.20;11.60;;;;;;;;;;5078886;28;20480;-73
2021/08/01 14:46:01;;;;;;;17.10;16.20;;;;;;;;;;5078319;28;20460;-74
2021/08/01 14:48:31;;;;;;;9.80;9.10;;;;;;;;;;5079954;28;20698;-71
2021/08/01 14:51:00;;;;;;;14.70;12.47;;;;;;;;;;5080509;28;20447;-73
2021/08/01 14:53:27;;;;;;;12.17;11.37;;;;;;;;;;5078946;28;20472;-73
2021/08/01 14:55:56;;;;;;;12.60;11.70;;;;;;;;;;5079537;28;20503;-73
2021/08/01 14:58:26;;;;;;;12.57;11.87;;;;;;;;;;5079258;28;20484;-72
2021/08/01 15:00:54;;;;;;;12.40;11.80;;;;;;;;;;5077790;28;20476;-71
2021/08/01 15:03:52;;;;;;;8.83;8.33;;;;;;;;;;5078654;28;20495;-73